IHS104 EDDF-LIPQ
Flight info
| Callsign | IHS104 |
|---|---|
| Flight time | 0h 58m |
| Altitude | 35000 |
| Route | CINDY6F/25C CINDY Z74 LAMPU DCT NOMBO Y161 MAH DCT VAVOR DCT RADIZ DCT URAVA P125 LUPIN |
| Aircraft | A320/M-SDE3FGHIRWY/LB1 |
Departure
| Time | 2026-04-17 13:28 |
|---|---|
| Airport | Frankfurt Main Airport (EDDF) |
Arrival
| Time | 2026-04-17 14:26 |
|---|---|
| Airport | Trieste Airport (LIPQ) |
| Time | Latitude | Longitude | Altitude | Speed | Heading |
|---|---|---|---|---|---|
| 2026-04-17 13:02 | 50.05178 | 8.59178 | 346 ft | 0 kts | 338° |
| 2026-04-17 13:13 | 50.05175 | 8.59180 | 345 ft | 2 kts | 339° |
| 2026-04-17 13:14 | 50.05158 | 8.59190 | 345 ft | 3 kts | 342° |
| 2026-04-17 13:14 | 50.05139 | 8.59199 | 345 ft | 3 kts | 347° |
| 2026-04-17 13:14 | 50.05119 | 8.59204 | 345 ft | 3 kts | 358° |
| 2026-04-17 13:14 | 50.05100 | 8.59202 | 345 ft | 3 kts | 27° |
| 2026-04-17 13:15 | 50.05089 | 8.59189 | 345 ft | 1 kts | 71° |
| 2026-04-17 13:15 | 50.05087 | 8.59182 | 345 ft | 0 kts | 71° |
| 2026-04-17 13:18 | 50.05090 | 8.59193 | 353 ft | 5 kts | 71° |
| 2026-04-17 13:19 | 50.05076 | 8.59309 | 350 ft | 17 kts | 132° |
| 2026-04-17 13:19 | 50.04974 | 8.59379 | 353 ft | 13 kts | 160° |
| 2026-04-17 13:19 | 50.04919 | 8.59407 | 345 ft | 5 kts | 170° |
| 2026-04-17 13:19 | 50.04890 | 8.59394 | 349 ft | 4 kts | 208° |
| 2026-04-17 13:20 | 50.04865 | 8.59376 | 345 ft | 7 kts | 200° |
| 2026-04-17 13:20 | 50.04777 | 8.59401 | 350 ft | 16 kts | 159° |
| 2026-04-17 13:20 | 50.04757 | 8.59413 | 345 ft | 0 kts | 159° |
| 2026-04-17 13:20 | 50.04757 | 8.59416 | 351 ft | 1 kts | 137° |
| 2026-04-17 13:21 | 50.04782 | 8.59404 | 345 ft | 6 kts | 328° |
| 2026-04-17 13:21 | 50.04823 | 8.59364 | 345 ft | 9 kts | 319° |
| 2026-04-17 13:21 | 50.04845 | 8.59287 | 345 ft | 7 kts | 269° |
| 2026-04-17 13:21 | 50.04834 | 8.59218 | 345 ft | 6 kts | 251° |
| 2026-04-17 13:22 | 50.04820 | 8.59156 | 355 ft | 8 kts | 251° |
| 2026-04-17 13:22 | 50.04793 | 8.59042 | 345 ft | 12 kts | 250° |
| 2026-04-17 13:22 | 50.04766 | 8.58926 | 345 ft | 11 kts | 250° |
| 2026-04-17 13:22 | 50.04741 | 8.58830 | 353 ft | 9 kts | 246° |
| 2026-04-17 13:23 | 50.04704 | 8.58773 | 345 ft | 7 kts | 199° |
| 2026-04-17 13:23 | 50.04662 | 8.58762 | 345 ft | 5 kts | 187° |
| 2026-04-17 13:23 | 50.04643 | 8.58758 | 353 ft | 2 kts | 187° |
| 2026-04-17 13:23 | 50.04642 | 8.58758 | 345 ft | 0 kts | 187° |
| 2026-04-17 13:26 | 50.04613 | 8.58745 | 353 ft | 8 kts | 204° |
| 2026-04-17 13:26 | 50.04549 | 8.58671 | 345 ft | 15 kts | 219° |
| 2026-04-17 13:27 | 50.04470 | 8.58512 | 353 ft | 28 kts | 249° |
| 2026-04-17 13:27 | 50.04322 | 8.57893 | 352 ft | 95 kts | 250° |
| 2026-04-17 13:27 | 50.04026 | 8.56649 | 346 ft | 151 kts | 249° |
| 2026-04-17 13:27 | 50.03601 | 8.54887 | 524 ft | 180 kts | 250° |
| 2026-04-17 13:28 | 50.03169 | 8.53066 | 1266 ft | 179 kts | 250° |
| 2026-04-17 13:28 | 50.02687 | 8.51286 | 2058 ft | 179 kts | 237° |
| 2026-04-17 13:28 | 50.01680 | 8.50059 | 2573 ft | 196 kts | 203° |
| 2026-04-17 13:28 | 50.00325 | 8.49325 | 2887 ft | 215 kts | 197° |
| 2026-04-17 13:29 | 49.98811 | 8.49236 | 3466 ft | 224 kts | 163° |
| 2026-04-17 13:29 | 49.97492 | 8.50484 | 4231 ft | 226 kts | 130° |
| 2026-04-17 13:29 | 49.96635 | 8.52560 | 4829 ft | 231 kts | 120° |
| 2026-04-17 13:29 | 49.95814 | 8.54817 | 4978 ft | 256 kts | 119° |
| 2026-04-17 13:30 | 49.94929 | 8.57301 | 5006 ft | 268 kts | 119° |
| 2026-04-17 13:30 | 49.94195 | 8.59960 | 5008 ft | 269 kts | 104° |
| 2026-04-17 13:30 | 49.93975 | 8.62842 | 5011 ft | 270 kts | 93° |
| 2026-04-17 13:30 | 49.93858 | 8.65798 | 5570 ft | 276 kts | 98° |
| 2026-04-17 13:31 | 49.93321 | 8.68642 | 6539 ft | 276 kts | 116° |
| 2026-04-17 13:31 | 49.92237 | 8.71057 | 7402 ft | 279 kts | 135° |
| 2026-04-17 13:31 | 49.90690 | 8.72944 | 8254 ft | 281 kts | 145° |
| 2026-04-17 13:31 | 49.89120 | 8.74779 | 9060 ft | 285 kts | 137° |
| 2026-04-17 13:32 | 49.87831 | 8.77144 | 9840 ft | 289 kts | 122° |
| 2026-04-17 13:32 | 49.86847 | 8.79849 | 10543 ft | 298 kts | 119° |
| 2026-04-17 13:32 | 49.85802 | 8.82763 | 10816 ft | 321 kts | 119° |
| 2026-04-17 13:32 | 49.84681 | 8.85868 | 11236 ft | 337 kts | 119° |
| 2026-04-17 13:33 | 49.83523 | 8.89064 | 11902 ft | 343 kts | 119° |
| 2026-04-17 13:33 | 49.82342 | 8.92313 | 12605 ft | 349 kts | 119° |
| 2026-04-17 13:33 | 49.81144 | 8.95605 | 13302 ft | 353 kts | 119° |
| 2026-04-17 13:33 | 49.79930 | 8.98942 | 13966 ft | 358 kts | 119° |
| 2026-04-17 13:34 | 49.78701 | 9.02320 | 14631 ft | 363 kts | 119° |
| 2026-04-17 13:34 | 49.77456 | 9.05740 | 15269 ft | 367 kts | 119° |
| 2026-04-17 13:34 | 49.76311 | 9.09298 | 15896 ft | 371 kts | 110° |
| 2026-04-17 13:34 | 49.75569 | 9.13134 | 16507 ft | 374 kts | 103° |
| 2026-04-17 13:35 | 49.74773 | 9.16984 | 17097 ft | 379 kts | 112° |
| 2026-04-17 13:35 | 49.73508 | 9.20592 | 17670 ft | 384 kts | 124° |
| 2026-04-17 13:35 | 49.71828 | 9.23819 | 18255 ft | 388 kts | 131° |
| 2026-04-17 13:35 | 49.70038 | 9.26962 | 18813 ft | 392 kts | 131° |
| 2026-04-17 13:36 | 49.68230 | 9.30143 | 19373 ft | 396 kts | 131° |
| 2026-04-17 13:36 | 49.66402 | 9.33361 | 19920 ft | 400 kts | 131° |
| 2026-04-17 13:36 | 49.64564 | 9.36601 | 20473 ft | 403 kts | 131° |
| 2026-04-17 13:36 | 49.62671 | 9.39826 | 20987 ft | 407 kts | 136° |
| 2026-04-17 13:37 | 49.60487 | 9.42623 | 21502 ft | 411 kts | 146° |
| 2026-04-17 13:37 | 49.58043 | 9.44938 | 21997 ft | 414 kts | 150° |
| 2026-04-17 13:37 | 49.55551 | 9.47212 | 22479 ft | 418 kts | 150° |
| 2026-04-17 13:37 | 49.53035 | 9.49505 | 22968 ft | 421 kts | 150° |
| 2026-04-17 13:38 | 49.50499 | 9.51812 | 23436 ft | 425 kts | 150° |
| 2026-04-17 13:38 | 49.48811 | 9.53348 | 23744 ft | 427 kts | 150° |
| 2026-04-17 13:38 | 49.45373 | 9.56474 | 24345 ft | 432 kts | 150° |
| 2026-04-17 13:38 | 49.42783 | 9.58832 | 24782 ft | 434 kts | 150° |
| 2026-04-17 13:39 | 49.40170 | 9.61206 | 25197 ft | 437 kts | 150° |
| 2026-04-17 13:39 | 49.38432 | 9.62785 | 25472 ft | 439 kts | 150° |
| 2026-04-17 13:39 | 49.34966 | 9.66023 | 26008 ft | 442 kts | 145° |
| 2026-04-17 13:39 | 49.32569 | 9.69002 | 26375 ft | 445 kts | 136° |
| 2026-04-17 13:40 | 49.31085 | 9.71258 | 26624 ft | 447 kts | 134° |
| 2026-04-17 13:40 | 49.28882 | 9.74638 | 26993 ft | 449 kts | 135° |
| 2026-04-17 13:40 | 49.26668 | 9.78028 | 27349 ft | 451 kts | 135° |
| 2026-04-17 13:40 | 49.24435 | 9.81436 | 27688 ft | 454 kts | 135° |
| 2026-04-17 13:41 | 49.21462 | 9.85962 | 28137 ft | 457 kts | 135° |
| 2026-04-17 13:41 | 49.19934 | 9.88280 | 28364 ft | 458 kts | 135° |
| 2026-04-17 13:41 | 49.17662 | 9.91716 | 28676 ft | 460 kts | 135° |
| 2026-04-17 13:41 | 49.15379 | 9.95168 | 28981 ft | 463 kts | 135° |
| 2026-04-17 13:42 | 49.13090 | 9.98634 | 29287 ft | 465 kts | 135° |
| 2026-04-17 13:42 | 49.10829 | 10.02060 | 29581 ft | 467 kts | 135° |
| 2026-04-17 13:42 | 49.08479 | 10.05617 | 29845 ft | 470 kts | 135° |
| 2026-04-17 13:42 | 49.06150 | 10.09133 | 30084 ft | 473 kts | 135° |
| 2026-04-17 13:43 | 49.03777 | 10.12621 | 30359 ft | 475 kts | 136° |
| 2026-04-17 13:43 | 49.01360 | 10.16063 | 30601 ft | 477 kts | 137° |
| 2026-04-17 13:43 | 48.98941 | 10.19438 | 30850 ft | 479 kts | 137° |
| 2026-04-17 13:43 | 48.96473 | 10.22854 | 31078 ft | 481 kts | 137° |
| 2026-04-17 13:44 | 48.93992 | 10.26291 | 31300 ft | 483 kts | 137° |
| 2026-04-17 13:44 | 48.91516 | 10.29748 | 31523 ft | 485 kts | 137° |
| 2026-04-17 13:44 | 48.89040 | 10.33234 | 31817 ft | 484 kts | 137° |
| 2026-04-17 13:44 | 48.86571 | 10.36724 | 32118 ft | 484 kts | 137° |
| 2026-04-17 13:45 | 48.84108 | 10.40208 | 32408 ft | 484 kts | 137° |
| 2026-04-17 13:45 | 48.81665 | 10.43725 | 32696 ft | 484 kts | 135° |
| 2026-04-17 13:45 | 48.79297 | 10.47348 | 32972 ft | 484 kts | 133° |
| 2026-04-17 13:45 | 48.76989 | 10.51060 | 33240 ft | 484 kts | 132° |
| 2026-04-17 13:46 | 48.74709 | 10.54821 | 33496 ft | 484 kts | 132° |
| 2026-04-17 13:46 | 48.72436 | 10.58579 | 33767 ft | 484 kts | 132° |
| 2026-04-17 13:46 | 48.70151 | 10.62324 | 34047 ft | 484 kts | 133° |
| 2026-04-17 13:46 | 48.67849 | 10.66041 | 34310 ft | 484 kts | 133° |
| 2026-04-17 13:47 | 48.65533 | 10.69736 | 34580 ft | 483 kts | 133° |
| 2026-04-17 13:47 | 48.63213 | 10.73408 | 34833 ft | 483 kts | 134° |
| 2026-04-17 13:47 | 48.60887 | 10.77077 | 35080 ft | 483 kts | 134° |
| 2026-04-17 13:47 | 48.58560 | 10.80744 | 35200 ft | 482 kts | 133° |
| 2026-04-17 13:48 | 48.53976 | 10.88032 | 35219 ft | 476 kts | 133° |
| 2026-04-17 13:48 | 48.49444 | 10.95290 | 35220 ft | 475 kts | 133° |
| 2026-04-17 13:49 | 48.44884 | 11.02498 | 35220 ft | 475 kts | 134° |
| 2026-04-17 13:49 | 48.40269 | 11.09652 | 35220 ft | 476 kts | 134° |
| 2026-04-17 13:50 | 48.35654 | 11.16782 | 35216 ft | 475 kts | 134° |
| 2026-04-17 13:50 | 48.31044 | 11.23915 | 35212 ft | 476 kts | 134° |
| 2026-04-17 13:51 | 48.26552 | 11.31208 | 35212 ft | 476 kts | 126° |
| 2026-04-17 13:51 | 48.23096 | 11.39627 | 35208 ft | 474 kts | 118° |
| 2026-04-17 13:52 | 48.19796 | 11.48193 | 35204 ft | 474 kts | 118° |
| 2026-04-17 13:52 | 48.16469 | 11.56757 | 35206 ft | 475 kts | 118° |
| 2026-04-17 13:53 | 48.13141 | 11.65315 | 35207 ft | 476 kts | 118° |
| 2026-04-17 13:53 | 48.09798 | 11.73874 | 35205 ft | 476 kts | 118° |
| 2026-04-17 13:54 | 48.04777 | 11.86686 | 35205 ft | 476 kts | 118° |
| 2026-04-17 13:55 | 47.99739 | 11.99497 | 35203 ft | 477 kts | 118° |
| 2026-04-17 13:56 | 47.92578 | 12.16132 | 35196 ft | 478 kts | 133° |
| 2026-04-17 13:56 | 47.87623 | 12.22726 | 35197 ft | 478 kts | 140° |
| 2026-04-17 13:57 | 47.82526 | 12.29099 | 35192 ft | 478 kts | 140° |
| 2026-04-17 13:58 | 47.74881 | 12.38663 | 35186 ft | 478 kts | 140° |
| 2026-04-17 13:58 | 47.67259 | 12.48122 | 35180 ft | 478 kts | 140° |
| 2026-04-17 13:59 | 47.59188 | 12.56754 | 35183 ft | 477 kts | 152° |
| 2026-04-17 14:00 | 47.53412 | 12.61590 | 35185 ft | 477 kts | 151° |
| 2026-04-17 14:00 | 47.47648 | 12.66436 | 35176 ft | 477 kts | 151° |
| 2026-04-17 14:01 | 47.41861 | 12.71291 | 35161 ft | 479 kts | 151° |
| 2026-04-17 14:01 | 47.36045 | 12.76138 | 35162 ft | 481 kts | 152° |
| 2026-04-17 14:02 | 47.30195 | 12.80998 | 35166 ft | 483 kts | 152° |
| 2026-04-17 14:02 | 47.24342 | 12.85850 | 35172 ft | 484 kts | 151° |
| 2026-04-17 14:03 | 47.18470 | 12.90715 | 35173 ft | 484 kts | 151° |
| 2026-04-17 14:03 | 47.12593 | 12.95572 | 35173 ft | 484 kts | 152° |
| 2026-04-17 14:04 | 47.06758 | 13.00383 | 35181 ft | 484 kts | 152° |
| 2026-04-17 14:04 | 47.00841 | 13.05249 | 35183 ft | 484 kts | 152° |
| 2026-04-17 14:05 | 46.95002 | 13.10028 | 35181 ft | 483 kts | 152° |
| 2026-04-17 14:05 | 46.89129 | 13.14822 | 35180 ft | 483 kts | 152° |
| 2026-04-17 14:06 | 46.83223 | 13.19631 | 35168 ft | 483 kts | 152° |
| 2026-04-17 14:06 | 46.77394 | 13.24371 | 35159 ft | 482 kts | 152° |
| 2026-04-17 14:07 | 46.71538 | 13.29136 | 35153 ft | 482 kts | 152° |
| 2026-04-17 14:07 | 46.65676 | 13.33889 | 35151 ft | 481 kts | 152° |
| 2026-04-17 14:08 | 46.59823 | 13.38620 | 35152 ft | 481 kts | 152° |
| 2026-04-17 14:08 | 46.53957 | 13.43329 | 35147 ft | 481 kts | 152° |
| 2026-04-17 14:08 | 46.51032 | 13.45671 | 35016 ft | 481 kts | 152° |
| 2026-04-17 14:09 | 46.48085 | 13.48028 | 34056 ft | 487 kts | 152° |
| 2026-04-17 14:09 | 46.45113 | 13.50404 | 33270 ft | 487 kts | 153° |
| 2026-04-17 14:09 | 46.41981 | 13.52140 | 32674 ft | 479 kts | 171° |
| 2026-04-17 14:09 | 46.38720 | 13.52363 | 31815 ft | 463 kts | 191° |
| 2026-04-17 14:10 | 46.35585 | 13.51534 | 30766 ft | 456 kts | 195° |
| 2026-04-17 14:10 | 46.32498 | 13.50598 | 29788 ft | 449 kts | 195° |
| 2026-04-17 14:10 | 46.29501 | 13.49658 | 29288 ft | 433 kts | 195° |
| 2026-04-17 14:10 | 46.26554 | 13.48730 | 28111 ft | 435 kts | 195° |
| 2026-04-17 14:11 | 46.23628 | 13.47821 | 27570 ft | 421 kts | 195° |
| 2026-04-17 14:11 | 46.20813 | 13.46978 | 27102 ft | 407 kts | 195° |
| 2026-04-17 14:11 | 46.18059 | 13.46174 | 26416 ft | 400 kts | 194° |
| 2026-04-17 14:11 | 46.15388 | 13.45407 | 25717 ft | 394 kts | 194° |
| 2026-04-17 14:12 | 46.12713 | 13.44648 | 24978 ft | 389 kts | 194° |
| 2026-04-17 14:12 | 46.10065 | 13.43899 | 24244 ft | 385 kts | 193° |
| 2026-04-17 14:12 | 46.07571 | 13.43191 | 23548 ft | 380 kts | 194° |
| 2026-04-17 14:13 | 46.02443 | 13.41717 | 22106 ft | 370 kts | 195° |
| 2026-04-17 14:13 | 46.00083 | 13.40410 | 21429 ft | 359 kts | 214° |
| 2026-04-17 14:13 | 45.98109 | 13.38293 | 20715 ft | 352 kts | 222° |
| 2026-04-17 14:13 | 45.96213 | 13.36087 | 19992 ft | 349 kts | 222° |
| 2026-04-17 14:14 | 45.94337 | 13.33904 | 19309 ft | 345 kts | 222° |
| 2026-04-17 14:14 | 45.92481 | 13.31742 | 18607 ft | 342 kts | 221° |
| 2026-04-17 14:14 | 45.90627 | 13.29582 | 17710 ft | 345 kts | 221° |
| 2026-04-17 14:14 | 45.88752 | 13.27402 | 16792 ft | 348 kts | 221° |
| 2026-04-17 14:15 | 45.86843 | 13.25247 | 15860 ft | 351 kts | 215° |
| 2026-04-17 14:15 | 45.84570 | 13.23964 | 14918 ft | 357 kts | 188° |
| 2026-04-17 14:15 | 45.82105 | 13.24265 | 13964 ft | 359 kts | 160° |
| 2026-04-17 14:15 | 45.79994 | 13.26100 | 13010 ft | 356 kts | 132° |
| 2026-04-17 14:16 | 45.78699 | 13.29045 | 12067 ft | 348 kts | 104° |
| 2026-04-17 14:16 | 45.78491 | 13.32418 | 11146 ft | 338 kts | 77° |
| 2026-04-17 14:16 | 45.79182 | 13.35583 | 10268 ft | 330 kts | 68° |
| 2026-04-17 14:16 | 45.80098 | 13.38561 | 9403 ft | 323 kts | 54° |
| 2026-04-17 14:17 | 45.81741 | 13.40658 | 8543 ft | 317 kts | 26° |
| 2026-04-17 14:17 | 45.83865 | 13.41296 | 7713 ft | 314 kts | 356° |
| 2026-04-17 14:17 | 45.85889 | 13.40351 | 6887 ft | 313 kts | 327° |
| 2026-04-17 14:17 | 45.87342 | 13.38024 | 6045 ft | 313 kts | 296° |
| 2026-04-17 14:18 | 45.87769 | 13.35047 | 5222 ft | 311 kts | 265° |
| 2026-04-17 14:18 | 45.87091 | 13.32150 | 4391 ft | 308 kts | 234° |
| 2026-04-17 14:18 | 45.85501 | 13.30186 | 3580 ft | 302 kts | 202° |
| 2026-04-17 14:18 | 45.83475 | 13.29693 | 2783 ft | 295 kts | 171° |
| 2026-04-17 14:19 | 45.81677 | 13.30833 | 2339 ft | 275 kts | 135° |
| 2026-04-17 14:19 | 45.80627 | 13.32940 | 2205 ft | 248 kts | 119° |
| 2026-04-17 14:19 | 45.79538 | 13.34667 | 2210 ft | 227 kts | 148° |
| 2026-04-17 14:19 | 45.78047 | 13.35270 | 2213 ft | 226 kts | 178° |
| 2026-04-17 14:20 | 45.76471 | 13.35190 | 2206 ft | 225 kts | 184° |
| 2026-04-17 14:20 | 45.74950 | 13.35001 | 2213 ft | 213 kts | 184° |
| 2026-04-17 14:20 | 45.73536 | 13.34524 | 2205 ft | 207 kts | 207° |
| 2026-04-17 14:20 | 45.72447 | 13.33230 | 2212 ft | 204 kts | 236° |
| 2026-04-17 14:21 | 45.71932 | 13.31371 | 2215 ft | 202 kts | 266° |
| 2026-04-17 14:21 | 45.72103 | 13.29413 | 2220 ft | 200 kts | 295° |
| 2026-04-17 14:21 | 45.72888 | 13.27821 | 2237 ft | 196 kts | 322° |
| 2026-04-17 14:21 | 45.74082 | 13.26933 | 2240 ft | 194 kts | 349° |
| 2026-04-17 14:22 | 45.75415 | 13.26916 | 2246 ft | 193 kts | 12° |
| 2026-04-17 14:22 | 45.76738 | 13.27297 | 2224 ft | 194 kts | 12° |
| 2026-04-17 14:22 | 45.77615 | 13.27545 | 2222 ft | 194 kts | 12° |
| 2026-04-17 14:22 | 45.78946 | 13.27919 | 2219 ft | 195 kts | 11° |
| 2026-04-17 14:23 | 45.80274 | 13.28287 | 2238 ft | 193 kts | 12° |
| 2026-04-17 14:23 | 45.81479 | 13.28859 | 2222 ft | 174 kts | 32° |
| 2026-04-17 14:23 | 45.82336 | 13.29989 | 2192 ft | 166 kts | 54° |
| 2026-04-17 14:23 | 45.82802 | 13.31523 | 1892 ft | 171 kts | 79° |
| 2026-04-17 14:24 | 45.82840 | 13.33210 | 1689 ft | 170 kts | 89° |
| 2026-04-17 14:24 | 45.82835 | 13.34910 | 1445 ft | 169 kts | 89° |
| 2026-04-17 14:24 | 45.82830 | 13.36562 | 1209 ft | 161 kts | 89° |
| 2026-04-17 14:24 | 45.82824 | 13.38125 | 1009 ft | 153 kts | 89° |
| 2026-04-17 14:25 | 45.82818 | 13.39615 | 813 ft | 147 kts | 89° |
| 2026-04-17 14:25 | 45.82813 | 13.41074 | 621 ft | 145 kts | 89° |
| 2026-04-17 14:25 | 45.82808 | 13.42522 | 399 ft | 144 kts | 90° |
| 2026-04-17 14:25 | 45.82798 | 13.43960 | 211 ft | 144 kts | 89° |
| 2026-04-17 14:26 | 45.82797 | 13.45368 | 50 ft | 142 kts | 90° |
| 2026-04-17 14:26 | 45.82789 | 13.46537 | 44 ft | 76 kts | 91° |
| 2026-04-17 14:26 | 45.82785 | 13.47009 | 47 ft | 37 kts | 90° |
| 2026-04-17 14:26 | 45.82783 | 13.47361 | 46 ft | 36 kts | 91° |
| 2026-04-17 14:27 | 45.82747 | 13.47687 | 48 ft | 31 kts | 134° |
| 2026-04-17 14:27 | 45.82580 | 13.47867 | 45 ft | 25 kts | 141° |
| 2026-04-17 14:27 | 45.82442 | 13.48032 | 45 ft | 27 kts | 140° |
| 2026-04-17 14:27 | 45.82331 | 13.48170 | 45 ft | 19 kts | 139° |
| 2026-04-17 14:28 | 45.82263 | 13.48265 | 47 ft | 10 kts | 117° |
| 2026-04-17 14:28 | 45.82261 | 13.48357 | 47 ft | 8 kts | 97° |
| 2026-04-17 14:28 | 45.82219 | 13.48388 | 44 ft | 6 kts | 168° |
| 2026-04-17 14:28 | 45.82180 | 13.48398 | 47 ft | 1 kts | 169° |